Eads, Colorado
Current Conditions -  °F | °C
As of 1:53 PM on Friday 31 Oct 2014 (Local Time) from KLAA Reporting Station
Clear Clear  
Wind Chill: 57°   Ceiling: Unl
Heat Index: 57°   Visibility: 10mi
Dew Point: 28°   Wind: 22mph
Humidity: 33%   Direction: 150°SSE
Pressure: 30.3"   Gusts: 28mph
Location:  38.48°N, 102.78°W
Report Text: KLAA 311953Z AUTO 15019G24KT 10SM CLR 14/M02 A3030 RMK AO2 PK WND 15027/1902 SLP252 T01391022
Loading
Personal Weather Stations






























Interactive Weather Map
Tropical Storm Tracking
New forecast layout! Learn more

10-Day Weather Forecast

Advertisements
Track Severe Weather on mobile